Beachwood, Ohio
Current Conditions -  °F | °C
As of 10:45 AM on Thursday 18 Dec 2014 (Local Time) from KCGF Reporting Station
Overcast Overcast  
Wind Chill: 22°   Ceiling: 1800
Heat Index: 32°   Visibility: 10mi
Dew Point: 25°   Wind: 14mph
Humidity: 75%   Direction: 250°WSW
Pressure: 30.21"   Gusts: NA
Location:  41.49°N, 81.5°W
Report Text: KCGF 181545Z 25012KT 10SM BKN018 OVC030 00/M04 A3021
Loading
Personal Weather Stations






























Interactive Weather Map New forecast layout! Learn more

10-Day Weather Forecast

Advertisements
Track Severe Weather on mobile